createdAt,value
2022-11-25T09:25:29.365Z,3.60
2022-11-25T09:40:33.295Z,3.50
2022-11-25T09:43:26.093Z,5.10
2022-11-25T09:46:19.746Z,6.60
2022-11-25T09:53:55.447Z,3.30
2022-11-25T09:56:32.884Z,4.67
2022-11-25T09:59:07.759Z,6.18
2022-11-25T10:34:35.611Z,3.20
2022-11-25T10:42:08.388Z,4.10
2022-11-25T10:44:40.560Z,2.88
2022-11-25T10:47:23.302Z,2.55
2022-11-25T10:50:18.587Z,1.95
2022-11-25T10:52:53.027Z,3.92
2022-11-25T10:55:25.884Z,3.50
2022-11-25T10:57:55.289Z,2.63
2022-11-25T11:00:34.149Z,2.55
2022-11-25T11:03:15.651Z,2.67
2022-11-25T11:05:49.434Z,2.17
2022-11-25T11:08:21.695Z,4.13
2022-11-25T11:11:14.820Z,3.13
2022-11-25T11:13:44.108Z,3.22
2022-11-25T11:16:30.570Z,5.43
2022-11-25T11:19:00.027Z,2.88
2022-11-25T11:21:33.015Z,1.83
2022-11-25T11:24:02.912Z,2.05
2022-11-25T11:26:33.518Z,1.73
2022-11-25T11:29:08.442Z,1.63
2022-11-25T11:31:46.241Z,3.85
2022-11-25T11:34:42.302Z,2.88
2022-11-25T11:37:23.876Z,3.05
2022-11-25T11:40:04.268Z,1.42
2022-11-25T11:42:39.529Z,4.30
2022-11-25T11:45:30.297Z,2.15
2022-11-25T11:48:12.313Z,3.13
2022-11-25T11:50:46.704Z,3.88
2022-11-25T11:53:26.761Z,1.98
2022-11-25T11:56:33.785Z,2.58
2022-11-25T11:59:07.466Z,2.63
2022-11-25T12:01:49.073Z,2.92
2022-11-25T12:04:26.362Z,3.47
2022-11-25T12:07:04.482Z,2.67
2022-11-25T12:09:38.439Z,4.28
2022-11-25T12:12:10.537Z,1.90
2022-11-25T12:14:45.167Z,1.15
2022-11-25T12:17:19.226Z,3.90
2022-11-25T12:19:56.712Z,2.40
2022-11-25T12:22:30.959Z,4.00
2022-11-25T12:32:57.862Z,3.30
2022-11-25T12:35:39.105Z,2.70
2022-11-25T12:38:24.683Z,3.17
2022-11-25T12:41:01.502Z,2.55
2022-11-25T12:46:16.814Z,2.83
2022-11-25T12:48:46.319Z,2.70
2022-11-25T12:51:28.226Z,3.72
2022-11-25T12:54:10.134Z,3.13
2022-11-25T12:56:54.447Z,4.47
2022-11-25T12:59:43.596Z,5.88
2022-11-25T13:02:35.946Z,3.45
2022-11-25T13:05:40.645Z,7.22
2022-11-25T13:08:25.748Z,5.95
2022-11-25T13:11:29.269Z,3.15
2022-11-25T13:14:02.740Z,6.65
2022-11-25T13:16:33.294Z,3.67
2022-11-25T13:19:02.386Z,3.08
2022-11-25T13:21:31.161Z,5.30
2022-11-25T13:24:01.980Z,5.68
2022-11-25T13:26:51.650Z,3.40
2022-11-25T13:30:00.523Z,4.00
2022-11-25T13:32:42.225Z,6.00
2022-11-25T15:37:58.079Z,6.07
2022-11-25T15:40:36.735Z,4.28
2022-11-25T15:43:07.963Z,4.27
2022-11-25T15:45:45.685Z,3.38
2022-11-25T15:48:19.905Z,6.82
2022-11-25T15:50:48.795Z,3.33
2022-11-25T15:53:30.162Z,5.00
2022-11-25T15:56:03.005Z,4.57
2022-11-25T15:58:31.900Z,5.25
2022-11-25T16:01:05.482Z,3.80
2022-11-25T19:41:21.468Z,9.17
2022-11-25T19:43:50.278Z,10.50
2022-11-25T19:46:36.758Z,8.00
2022-11-25T19:49:07.093Z,8.53
2022-11-25T19:51:36.253Z,7.73
2022-11-25T19:54:05.416Z,10.07
2022-11-25T19:56:37.546Z,10.83
2022-11-25T19:59:06.344Z,7.10
2022-11-25T20:01:39.170Z,8.70
2022-11-25T20:04:09.726Z,6.07
2022-11-25T20:06:38.505Z,8.17
2022-11-25T20:09:11.212Z,8.23
2022-11-25T20:11:40.178Z,8.33
2022-11-25T20:14:08.989Z,12.77
2022-11-25T20:16:42.259Z,8.63
2022-11-25T20:19:18.902Z,9.80
2022-11-25T20:21:48.711Z,9.77
2022-11-25T20:24:20.413Z,12.67
2022-11-25T20:26:50.387Z,6.13
2022-11-25T20:29:23.622Z,8.10
2022-11-25T20:31:57.880Z,7.18
2022-11-25T20:34:28.394Z,8.83
2022-11-25T20:36:57.199Z,12.30
2022-11-25T20:39:26.408Z,8.40
2022-11-25T20:41:55.073Z,8.23
2022-11-25T20:44:23.835Z,5.87
2022-11-25T20:46:52.624Z,6.10
2022-11-25T20:49:27.657Z,7.23
2022-11-25T20:51:56.665Z,7.13
2022-11-25T20:54:25.543Z,7.80
2022-11-25T20:56:57.165Z,5.87
2022-11-25T20:59:26.155Z,5.93
2022-11-25T21:01:55.118Z,8.00
2022-11-25T21:04:25.372Z,5.10
2022-11-25T21:06:54.291Z,9.83
2022-11-25T21:09:26.303Z,7.73
2022-11-25T21:11:55.087Z,8.23
2022-11-25T21:14:23.932Z,6.30
2022-11-25T21:16:54.027Z,7.17
2022-11-25T21:19:24.165Z,6.70
2022-11-25T21:21:53.341Z,5.60
2022-11-25T21:24:30.388Z,8.03
2022-11-25T21:27:01.401Z,6.80
2022-11-25T21:29:31.235Z,7.10
2022-11-25T21:32:00.124Z,5.63
2022-11-25T21:34:30.292Z,5.70
2022-11-25T21:36:59.889Z,7.80
2022-11-25T21:39:32.148Z,12.20
2022-11-25T21:42:04.367Z,7.97
2022-11-25T21:44:36.196Z,7.57
2022-11-25T21:47:13.804Z,13.37
2022-11-25T21:49:43.993Z,7.70
2022-11-25T21:52:12.754Z,7.03
2022-11-25T21:54:41.818Z,6.80
2022-11-25T21:57:16.234Z,9.30
2022-11-25T21:59:46.296Z,10.23
2022-11-25T22:02:19.552Z,8.90
2022-11-25T22:04:50.005Z,6.93
2022-11-25T22:07:19.197Z,9.80
2022-11-25T22:09:47.923Z,10.63
2022-11-25T22:12:28.679Z,11.43
